sensor_id;sensor_type;location;lat;lon;timestamp;P1;durP1;ratioP1;P2;durP2;ratioP2
47239;SDS011;32978;53.586;10.052;2024-01-15T00:03:26;9.57;;;7.53;;
47239;SDS011;32978;53.586;10.052;2024-01-15T00:08:23;9.05;;;7.88;;
47239;SDS011;32978;53.586;10.052;2024-01-15T00:13:19;14.65;;;8.45;;
47239;SDS011;32978;53.586;10.052;2024-01-15T00:18:15;12.65;;;7.82;;
47239;SDS011;32978;53.586;10.052;2024-01-15T00:23:12;10.63;;;8.13;;
47239;SDS011;32978;53.586;10.052;2024-01-15T00:28:09;10.80;;;7.53;;
47239;SDS011;32978;53.586;10.052;2024-01-15T00:33:05;8.32;;;7.00;;
47239;SDS011;32978;53.586;10.052;2024-01-15T00:38:02;9.23;;;7.70;;
47239;SDS011;32978;53.586;10.052;2024-01-15T00:42:59;8.57;;;7.65;;
47239;SDS011;32978;53.586;10.052;2024-01-15T00:47:55;10.57;;;8.13;;
47239;SDS011;32978;53.586;10.052;2024-01-15T00:52:53;9.43;;;8.35;;
47239;SDS011;32978;53.586;10.052;2024-01-15T00:57:49;10.15;;;8.18;;
47239;SDS011;32978;53.586;10.052;2024-01-15T01:02:46;14.15;;;8.13;;
47239;SDS011;32978;53.586;10.052;2024-01-15T01:07:43;16.55;;;8.27;;
47239;SDS011;32978;53.586;10.052;2024-01-15T01:12:39;8.40;;;7.65;;
47239;SDS011;32978;53.586;10.052;2024-01-15T01:17:36;15.68;;;7.53;;
47239;SDS011;32978;53.586;10.052;2024-01-15T01:22:32;12.57;;;8.23;;
47239;SDS011;32978;53.586;10.052;2024-01-15T01:27:29;15.55;;;8.23;;
47239;SDS011;32978;53.586;10.052;2024-01-15T01:32:26;14.07;;;8.27;;
47239;SDS011;32978;53.586;10.052;2024-01-15T01:37:22;11.65;;;8.32;;
47239;SDS011;32978;53.586;10.052;2024-01-15T01:42:19;10.60;;;6.63;;
47239;SDS011;32978;53.586;10.052;2024-01-15T01:47:15;12.75;;;7.35;;
47239;SDS011;32978;53.586;10.052;2024-01-15T01:52:12;13.63;;;7.88;;
47239;SDS011;32978;53.586;10.052;2024-01-15T01:57:10;7.57;;;6.97;;
47239;SDS011;32978;53.586;10.052;2024-01-15T02:07:19;15.05;;;7.55;;
47239;SDS011;32978;53.586;10.052;2024-01-15T02:12:17;8.63;;;7.68;;
47239;SDS011;32978;53.586;10.052;2024-01-15T02:17:13;8.27;;;7.07;;
47239;SDS011;32978;53.586;10.052;2024-01-15T02:22:10;11.85;;;7.45;;
47239;SDS011;32978;53.586;10.052;2024-01-15T02:27:06;13.88;;;8.32;;
47239;SDS011;32978;53.586;10.052;2024-01-15T02:32:06;11.45;;;7.57;;
47239;SDS011;32978;53.586;10.052;2024-01-15T02:37:04;8.40;;;7.23;;
47239;SDS011;32978;53.586;10.052;2024-01-15T02:42:01;9.60;;;7.75;;
47239;SDS011;32978;53.586;10.052;2024-01-15T02:46:57;17.38;;;8.07;;
47239;SDS011;32978;53.586;10.052;2024-01-15T02:51:54;21.27;;;8.43;;
47239;SDS011;32978;53.586;10.052;2024-01-15T02:56:50;17.23;;;8.02;;
47239;SDS011;32978;53.586;10.052;2024-01-15T03:01:47;8.40;;;7.60;;
47239;SDS011;32978;53.586;10.052;2024-01-15T03:06:43;7.45;;;6.85;;
47239;SDS011;32978;53.586;10.052;2024-01-15T03:11:40;17.33;;;7.93;;
47239;SDS011;32978;53.586;10.052;2024-01-15T03:16:37;14.15;;;7.90;;
47239;SDS011;32978;53.586;10.052;2024-01-15T03:21:33;13.57;;;8.43;;
47239;SDS011;32978;53.586;10.052;2024-01-15T03:26:30;12.82;;;8.20;;
47239;SDS011;32978;53.586;10.052;2024-01-15T03:31:26;9.10;;;8.27;;
47239;SDS011;32978;53.586;10.052;2024-01-15T03:36:23;13.57;;;8.95;;
47239;SDS011;32978;53.586;10.052;2024-01-15T03:41:19;19.15;;;10.43;;
47239;SDS011;32978;53.586;10.052;2024-01-15T03:46:16;13.02;;;8.40;;
47239;SDS011;32978;53.586;10.052;2024-01-15T03:51:12;15.75;;;8.98;;
47239;SDS011;32978;53.586;10.052;2024-01-15T03:56:11;13.13;;;8.93;;
47239;SDS011;32978;53.586;10.052;2024-01-15T04:01:11;20.48;;;9.32;;
47239;SDS011;32978;53.586;10.052;2024-01-15T04:06:08;13.15;;;9.55;;
47239;SDS011;32978;53.586;10.052;2024-01-15T04:11:05;9.77;;;8.88;;
47239;SDS011;32978;53.586;10.052;2024-01-15T04:16:01;14.23;;;9.55;;
47239;SDS011;32978;53.586;10.052;2024-01-15T04:20:59;19.08;;;9.15;;
47239;SDS011;32978;53.586;10.052;2024-01-15T04:25:55;11.02;;;8.48;;
47239;SDS011;32978;53.586;10.052;2024-01-15T04:30:52;13.75;;;9.90;;
47239;SDS011;32978;53.586;10.052;2024-01-15T04:35:49;16.83;;;8.80;;
47239;SDS011;32978;53.586;10.052;2024-01-15T04:40:45;20.08;;;9.73;;
47239;SDS011;32978;53.586;10.052;2024-01-15T04:45:42;19.85;;;9.32;;
47239;SDS011;32978;53.586;10.052;2024-01-15T04:50:38;12.40;;;8.60;;
47239;SDS011;32978;53.586;10.052;2024-01-15T04:55:35;20.90;;;9.95;;
47239;SDS011;32978;53.586;10.052;2024-01-15T05:00:31;26.25;;;9.40;;
47239;SDS011;32978;53.586;10.052;2024-01-15T05:05:28;20.75;;;9.07;;
47239;SDS011;32978;53.586;10.052;2024-01-15T05:10:24;24.05;;;9.30;;
47239;SDS011;32978;53.586;10.052;2024-01-15T05:15:21;19.77;;;9.18;;
47239;SDS011;32978;53.586;10.052;2024-01-15T05:20:18;25.80;;;9.90;;
47239;SDS011;32978;53.586;10.052;2024-01-15T05:25:14;22.83;;;9.98;;
47239;SDS011;32978;53.586;10.052;2024-01-15T05:30:11;18.92;;;10.10;;
47239;SDS011;32978;53.586;10.052;2024-01-15T05:35:08;17.80;;;10.45;;
47239;SDS011;32978;53.586;10.052;2024-01-15T05:40:04;17.50;;;10.45;;
47239;SDS011;32978;53.586;10.052;2024-01-15T05:45:01;14.85;;;10.85;;
47239;SDS011;32978;53.586;10.052;2024-01-15T05:50:01;18.17;;;9.98;;
47239;SDS011;32978;53.586;10.052;2024-01-15T05:54:58;12.73;;;10.48;;
47239;SDS011;32978;53.586;10.052;2024-01-15T05:59:54;19.00;;;10.13;;
47239;SDS011;32978;53.586;10.052;2024-01-15T06:04:51;17.70;;;10.45;;
47239;SDS011;32978;53.586;10.052;2024-01-15T06:09:47;18.17;;;10.48;;
47239;SDS011;32978;53.586;10.052;2024-01-15T06:14:44;16.10;;;10.77;;
47239;SDS011;32978;53.586;10.052;2024-01-15T06:19:41;23.08;;;10.73;;
47239;SDS011;32978;53.586;10.052;2024-01-15T06:24:37;12.35;;;10.60;;
47239;SDS011;32978;53.586;10.052;2024-01-15T06:29:37;22.85;;;11.43;;
47239;SDS011;32978;53.586;10.052;2024-01-15T06:34:34;22.83;;;12.13;;
47239;SDS011;32978;53.586;10.052;2024-01-15T06:39:30;19.45;;;11.10;;
47239;SDS011;32978;53.586;10.052;2024-01-15T06:44:27;18.65;;;11.45;;
47239;SDS011;32978;53.586;10.052;2024-01-15T06:49:23;12.20;;;10.88;;
47239;SDS011;32978;53.586;10.052;2024-01-15T06:54:20;15.55;;;10.73;;
47239;SDS011;32978;53.586;10.052;2024-01-15T06:59:16;18.48;;;10.75;;
47239;SDS011;32978;53.586;10.052;2024-01-15T07:04:15;12.73;;;10.82;;
47239;SDS011;32978;53.586;10.052;2024-01-15T07:09:12;19.17;;;10.13;;
47239;SDS011;32978;53.586;10.052;2024-01-15T07:14:08;13.60;;;10.25;;
47239;SDS011;32978;53.586;10.052;2024-01-15T07:19:05;15.82;;;8.98;;
47239;SDS011;32978;53.586;10.052;2024-01-15T07:24:02;16.65;;;8.32;;
47239;SDS011;32978;53.586;10.052;2024-01-15T07:28:59;13.85;;;9.00;;
47239;SDS011;32978;53.586;10.052;2024-01-15T07:33:55;16.85;;;7.65;;
47239;SDS011;32978;53.586;10.052;2024-01-15T07:38:52;15.00;;;7.47;;
47239;SDS011;32978;53.586;10.052;2024-01-15T07:43:48;8.38;;;7.00;;
47239;SDS011;32978;53.586;10.052;2024-01-15T07:48:45;13.95;;;5.75;;
47239;SDS011;32978;53.586;10.052;2024-01-15T07:53:41;13.02;;;6.78;;
47239;SDS011;32978;53.586;10.052;2024-01-15T07:58:38;9.80;;;6.85;;
47239;SDS011;32978;53.586;10.052;2024-01-15T08:03:34;12.13;;;7.50;;
47239;SDS011;32978;53.586;10.052;2024-01-15T08:08:31;8.25;;;6.40;;
47239;SDS011;32978;53.586;10.052;2024-01-15T08:13:27;10.23;;;6.45;;
47239;SDS011;32978;53.586;10.052;2024-01-15T08:18:24;9.52;;;6.43;;
47239;SDS011;32978;53.586;10.052;2024-01-15T08:23:21;14.90;;;6.93;;
47239;SDS011;32978;53.586;10.052;2024-01-15T08:28:18;19.48;;;7.05;;
47239;SDS011;32978;53.586;10.052;2024-01-15T08:33:14;7.22;;;6.20;;
47239;SDS011;32978;53.586;10.052;2024-01-15T08:38:18;14.50;;;6.95;;
47239;SDS011;32978;53.586;10.052;2024-01-15T08:43:15;13.32;;;7.10;;
47239;SDS011;32978;53.586;10.052;2024-01-15T08:48:11;14.38;;;6.20;;
47239;SDS011;32978;53.586;10.052;2024-01-15T08:53:08;10.80;;;6.85;;
47239;SDS011;32978;53.586;10.052;2024-01-15T08:58:04;13.77;;;7.30;;
47239;SDS011;32978;53.586;10.052;2024-01-15T09:03:02;10.60;;;8.32;;
47239;SDS011;32978;53.586;10.052;2024-01-15T09:07:59;10.18;;;9.27;;
47239;SDS011;32978;53.586;10.052;2024-01-15T09:12:55;14.90;;;8.95;;
47239;SDS011;32978;53.586;10.052;2024-01-15T09:17:52;11.52;;;9.40;;
47239;SDS011;32978;53.586;10.052;2024-01-15T09:22:49;9.77;;;9.07;;
47239;SDS011;32978;53.586;10.052;2024-01-15T09:27:45;15.18;;;8.98;;
47239;SDS011;32978;53.586;10.052;2024-01-15T09:32:42;10.45;;;9.48;;
47239;SDS011;32978;53.586;10.052;2024-01-15T09:37:39;13.95;;;11.07;;
47239;SDS011;32978;53.586;10.052;2024-01-15T09:42:43;13.43;;;10.73;;
47239;SDS011;32978;53.586;10.052;2024-01-15T09:47:41;15.75;;;9.20;;
47239;SDS011;32978;53.586;10.052;2024-01-15T09:52:42;16.05;;;8.82;;
47239;SDS011;32978;53.586;10.052;2024-01-15T09:57:39;12.45;;;8.30;;
47239;SDS011;32978;53.586;10.052;2024-01-15T10:02:36;12.75;;;8.73;;
47239;SDS011;32978;53.586;10.052;2024-01-15T10:07:33;12.45;;;10.40;;
47239;SDS011;32978;53.586;10.052;2024-01-15T10:12:32;21.75;;;9.77;;
47239;SDS011;32978;53.586;10.052;2024-01-15T10:17:28;14.07;;;9.13;;
47239;SDS011;32978;53.586;10.052;2024-01-15T10:22:27;11.02;;;8.27;;
47239;SDS011;32978;53.586;10.052;2024-01-15T10:27:23;11.25;;;9.25;;
47239;SDS011;32978;53.586;10.052;2024-01-15T10:32:20;10.02;;;9.20;;
47239;SDS011;32978;53.586;10.052;2024-01-15T10:37:20;10.77;;;9.68;;
47239;SDS011;32978;53.586;10.052;2024-01-15T10:42:16;10.80;;;9.65;;
47239;SDS011;32978;53.586;10.052;2024-01-15T10:47:14;9.68;;;8.98;;
47239;SDS011;32978;53.586;10.052;2024-01-15T10:52:11;12.45;;;9.73;;
47239;SDS011;32978;53.586;10.052;2024-01-15T10:57:07;9.25;;;8.45;;
47239;SDS011;32978;53.586;10.052;2024-01-15T11:02:05;10.50;;;9.63;;
47239;SDS011;32978;53.586;10.052;2024-01-15T11:07:02;10.88;;;9.82;;
47239;SDS011;32978;53.586;10.052;2024-01-15T11:12:09;10.32;;;9.38;;
47239;SDS011;32978;53.586;10.052;2024-01-15T11:17:07;9.65;;;8.95;;
47239;SDS011;32978;53.586;10.052;2024-01-15T11:22:03;11.65;;;10.80;;
47239;SDS011;32978;53.586;10.052;2024-01-15T11:27:02;10.75;;;9.88;;
47239;SDS011;32978;53.586;10.052;2024-01-15T11:31:59;10.15;;;9.30;;
47239;SDS011;32978;53.586;10.052;2024-01-15T11:37:01;12.60;;;9.88;;
47239;SDS011;32978;53.586;10.052;2024-01-15T11:41:59;10.23;;;9.43;;
47239;SDS011;32978;53.586;10.052;2024-01-15T11:47:01;10.20;;;9.30;;
47239;SDS011;32978;53.586;10.052;2024-01-15T11:51:59;10.60;;;9.45;;
47239;SDS011;32978;53.586;10.052;2024-01-15T11:56:57;10.10;;;9.40;;
47239;SDS011;32978;53.586;10.052;2024-01-15T12:02:00;10.13;;;9.43;;
47239;SDS011;32978;53.586;10.052;2024-01-15T12:06:57;9.35;;;8.70;;
47239;SDS011;32978;53.586;10.052;2024-01-15T12:12:02;11.00;;;9.88;;
47239;SDS011;32978;53.586;10.052;2024-01-15T12:17:03;13.02;;;9.45;;
47239;SDS011;32978;53.586;10.052;2024-01-15T12:22:01;9.40;;;8.63;;
47239;SDS011;32978;53.586;10.052;2024-01-15T12:26:57;10.95;;;10.02;;
47239;SDS011;32978;53.586;10.052;2024-01-15T12:31:54;11.20;;;10.07;;
47239;SDS011;32978;53.586;10.052;2024-01-15T12:36:51;10.93;;;10.05;;
47239;SDS011;32978;53.586;10.052;2024-01-15T12:41:48;15.10;;;10.30;;
47239;SDS011;32978;53.586;10.052;2024-01-15T12:46:45;10.82;;;9.82;;
47239;SDS011;32978;53.586;10.052;2024-01-15T12:51:42;12.13;;;10.77;;
47239;SDS011;32978;53.586;10.052;2024-01-15T12:56:39;11.68;;;10.98;;
47239;SDS011;32978;53.586;10.052;2024-01-15T13:01:35;11.73;;;10.82;;
47239;SDS011;32978;53.586;10.052;2024-01-15T13:06:32;11.45;;;10.55;;
47239;SDS011;32978;53.586;10.052;2024-01-15T13:11:29;12.57;;;11.38;;
47239;SDS011;32978;53.586;10.052;2024-01-15T13:16:25;11.70;;;10.57;;
47239;SDS011;32978;53.586;10.052;2024-01-15T13:21:25;14.05;;;10.90;;
47239;SDS011;32978;53.586;10.052;2024-01-15T13:26:21;11.15;;;10.20;;
47239;SDS011;32978;53.586;10.052;2024-01-15T13:31:18;11.25;;;10.40;;
47239;SDS011;32978;53.586;10.052;2024-01-15T13:36:14;11.52;;;10.57;;
47239;SDS011;32978;53.586;10.052;2024-01-15T13:41:11;11.90;;;10.75;;
47239;SDS011;32978;53.586;10.052;2024-01-15T13:46:07;12.20;;;11.00;;
47239;SDS011;32978;53.586;10.052;2024-01-15T13:51:04;11.05;;;10.25;;
47239;SDS011;32978;53.586;10.052;2024-01-15T13:56:00;10.77;;;9.88;;
47239;SDS011;32978;53.586;10.052;2024-01-15T14:00:57;10.32;;;9.63;;
47239;SDS011;32978;53.586;10.052;2024-01-15T14:05:54;10.07;;;9.20;;
47239;SDS011;32978;53.586;10.052;2024-01-15T14:10:50;12.90;;;10.40;;
47239;SDS011;32978;53.586;10.052;2024-01-15T14:15:47;11.95;;;10.93;;
47239;SDS011;32978;53.586;10.052;2024-01-15T14:20:46;11.45;;;10.75;;
47239;SDS011;32978;53.586;10.052;2024-01-15T14:25:42;11.55;;;10.65;;
47239;SDS011;32978;53.586;10.052;2024-01-15T14:30:39;11.55;;;10.75;;
47239;SDS011;32978;53.586;10.052;2024-01-15T14:35:35;15.20;;;11.30;;
47239;SDS011;32978;53.586;10.052;2024-01-15T14:40:32;12.20;;;11.02;;
47239;SDS011;32978;53.586;10.052;2024-01-15T14:45:28;12.82;;;11.93;;
47239;SDS011;32978;53.586;10.052;2024-01-15T14:50:26;12.40;;;11.50;;
47239;SDS011;32978;53.586;10.052;2024-01-15T14:55:23;12.20;;;11.32;;
47239;SDS011;32978;53.586;10.052;2024-01-15T15:00:19;13.07;;;11.52;;
47239;SDS011;32978;53.586;10.052;2024-01-15T15:05:16;12.30;;;11.32;;
47239;SDS011;32978;53.586;10.052;2024-01-15T15:10:13;13.02;;;11.85;;
47239;SDS011;32978;53.586;10.052;2024-01-15T15:15:11;12.88;;;11.98;;
47239;SDS011;32978;53.586;10.052;2024-01-15T15:20:13;13.70;;;12.80;;
47239;SDS011;32978;53.586;10.052;2024-01-15T15:25:10;13.88;;;12.65;;
47239;SDS011;32978;53.586;10.052;2024-01-15T15:30:08;14.48;;;13.10;;
47239;SDS011;32978;53.586;10.052;2024-01-15T15:35:04;14.20;;;12.75;;
47239;SDS011;32978;53.586;10.052;2024-01-15T15:40:03;14.02;;;13.13;;
47239;SDS011;32978;53.586;10.052;2024-01-15T15:45:04;13.25;;;12.35;;
47239;SDS011;32978;53.586;10.052;2024-01-15T15:50:01;14.63;;;13.60;;
47239;SDS011;32978;53.586;10.052;2024-01-15T15:54:58;13.90;;;13.00;;
47239;SDS011;32978;53.586;10.052;2024-01-15T15:59:55;14.13;;;13.02;;
47239;SDS011;32978;53.586;10.052;2024-01-15T16:04:51;14.40;;;13.18;;
47239;SDS011;32978;53.586;10.052;2024-01-15T16:09:48;15.63;;;14.18;;
47239;SDS011;32978;53.586;10.052;2024-01-15T16:14:45;13.75;;;12.77;;
47239;SDS011;32978;53.586;10.052;2024-01-15T16:19:41;14.57;;;13.38;;
47239;SDS011;32978;53.586;10.052;2024-01-15T16:24:57;14.23;;;13.20;;
47239;SDS011;32978;53.586;10.052;2024-01-15T16:29:59;21.85;;;13.73;;
47239;SDS011;32978;53.586;10.052;2024-01-15T16:34:55;15.85;;;14.27;;
47239;SDS011;32978;53.586;10.052;2024-01-15T16:39:52;15.43;;;14.05;;
47239;SDS011;32978;53.586;10.052;2024-01-15T16:44:48;15.98;;;14.35;;
47239;SDS011;32978;53.586;10.052;2024-01-15T16:49:45;16.52;;;14.82;;
47239;SDS011;32978;53.586;10.052;2024-01-15T16:54:41;16.15;;;14.80;;
47239;SDS011;32978;53.586;10.052;2024-01-15T16:59:38;15.85;;;14.40;;
47239;SDS011;32978;53.586;10.052;2024-01-15T17:04:34;15.90;;;14.45;;
47239;SDS011;32978;53.586;10.052;2024-01-15T17:09:31;15.32;;;13.85;;
47239;SDS011;32978;53.586;10.052;2024-01-15T17:14:27;14.48;;;13.40;;
47239;SDS011;32978;53.586;10.052;2024-01-15T17:19:24;16.02;;;14.40;;
47239;SDS011;32978;53.586;10.052;2024-01-15T17:24:23;15.93;;;14.40;;
47239;SDS011;32978;53.586;10.052;2024-01-15T17:29:19;15.98;;;14.43;;
47239;SDS011;32978;53.586;10.052;2024-01-15T17:34:16;15.35;;;14.05;;
47239;SDS011;32978;53.586;10.052;2024-01-15T17:39:13;16.13;;;14.52;;
47239;SDS011;32978;53.586;10.052;2024-01-15T17:44:11;16.08;;;14.63;;
47239;SDS011;32978;53.586;10.052;2024-01-15T17:49:09;18.33;;;16.55;;
47239;SDS011;32978;53.586;10.052;2024-01-15T17:54:05;17.60;;;15.82;;
47239;SDS011;32978;53.586;10.052;2024-01-15T17:59:05;17.63;;;15.70;;
47239;SDS011;32978;53.586;10.052;2024-01-15T18:04:02;23.88;;;16.52;;
47239;SDS011;32978;53.586;10.052;2024-01-15T18:09:02;19.48;;;17.50;;
47239;SDS011;32978;53.586;10.052;2024-01-15T18:13:58;17.85;;;16.13;;
47239;SDS011;32978;53.586;10.052;2024-01-15T18:18:55;15.55;;;14.02;;
47239;SDS011;32978;53.586;10.052;2024-01-15T18:23:52;14.48;;;13.25;;
47239;SDS011;32978;53.586;10.052;2024-01-15T18:28:48;15.48;;;14.00;;
47239;SDS011;32978;53.586;10.052;2024-01-15T18:33:45;15.50;;;13.93;;
47239;SDS011;32978;53.586;10.052;2024-01-15T18:38:41;13.55;;;12.32;;
47239;SDS011;32978;53.586;10.052;2024-01-15T18:43:38;11.93;;;10.60;;
47239;SDS011;32978;53.586;10.052;2024-01-15T18:48:34;11.02;;;10.25;;
47239;SDS011;32978;53.586;10.052;2024-01-15T18:53:31;11.23;;;10.35;;
47239;SDS011;32978;53.586;10.052;2024-01-15T18:58:28;10.95;;;10.00;;
47239;SDS011;32978;53.586;10.052;2024-01-15T19:03:24;10.35;;;9.63;;
47239;SDS011;32978;53.586;10.052;2024-01-15T19:08:21;11.25;;;10.02;;
47239;SDS011;32978;53.586;10.052;2024-01-15T19:13:17;10.30;;;9.50;;
47239;SDS011;32978;53.586;10.052;2024-01-15T19:18:14;10.00;;;9.00;;
47239;SDS011;32978;53.586;10.052;2024-01-15T19:23:10;9.85;;;9.10;;
47239;SDS011;32978;53.586;10.052;2024-01-15T19:28:07;9.88;;;8.98;;
47239;SDS011;32978;53.586;10.052;2024-01-15T19:33:03;10.88;;;9.73;;
47239;SDS011;32978;53.586;10.052;2024-01-15T19:38:00;11.63;;;10.50;;
47239;SDS011;32978;53.586;10.052;2024-01-15T19:42:59;11.52;;;10.35;;
47239;SDS011;32978;53.586;10.052;2024-01-15T19:47:58;10.38;;;9.57;;
47239;SDS011;32978;53.586;10.052;2024-01-15T19:52:55;9.95;;;9.13;;
47239;SDS011;32978;53.586;10.052;2024-01-15T19:57:51;10.88;;;9.95;;
47239;SDS011;32978;53.586;10.052;2024-01-15T20:02:48;10.73;;;9.82;;
47239;SDS011;32978;53.586;10.052;2024-01-15T20:07:44;10.23;;;9.32;;
47239;SDS011;32978;53.586;10.052;2024-01-15T20:12:41;9.70;;;9.00;;
47239;SDS011;32978;53.586;10.052;2024-01-15T20:17:37;10.57;;;9.68;;
47239;SDS011;32978;53.586;10.052;2024-01-15T20:22:34;10.50;;;9.57;;
47239;SDS011;32978;53.586;10.052;2024-01-15T20:27:30;11.23;;;10.10;;
47239;SDS011;32978;53.586;10.052;2024-01-15T20:32:27;11.23;;;10.32;;
47239;SDS011;32978;53.586;10.052;2024-01-15T20:37:23;12.38;;;11.13;;
47239;SDS011;32978;53.586;10.052;2024-01-15T20:42:20;11.98;;;11.15;;
47239;SDS011;32978;53.586;10.052;2024-01-15T20:47:16;12.23;;;11.20;;
47239;SDS011;32978;53.586;10.052;2024-01-15T20:52:13;11.93;;;10.73;;
47239;SDS011;32978;53.586;10.052;2024-01-15T20:57:09;12.00;;;11.10;;
47239;SDS011;32978;53.586;10.052;2024-01-15T21:02:06;11.35;;;10.25;;
47239;SDS011;32978;53.586;10.052;2024-01-15T21:07:05;10.90;;;9.90;;
47239;SDS011;32978;53.586;10.052;2024-01-15T21:12:03;10.30;;;9.40;;
47239;SDS011;32978;53.586;10.052;2024-01-15T21:17:03;10.05;;;9.25;;
47239;SDS011;32978;53.586;10.052;2024-01-15T21:22:00;9.50;;;8.88;;
47239;SDS011;32978;53.586;10.052;2024-01-15T21:26:56;9.45;;;8.60;;
47239;SDS011;32978;53.586;10.052;2024-01-15T21:31:54;10.40;;;9.55;;
47239;SDS011;32978;53.586;10.052;2024-01-15T21:36:50;10.48;;;9.68;;
47239;SDS011;32978;53.586;10.052;2024-01-15T21:41:47;10.57;;;9.73;;
47239;SDS011;32978;53.586;10.052;2024-01-15T21:46:45;10.85;;;9.60;;
47239;SDS011;32978;53.586;10.052;2024-01-15T21:51:41;11.07;;;10.07;;
47239;SDS011;32978;53.586;10.052;2024-01-15T21:56:38;11.93;;;10.65;;
47239;SDS011;32978;53.586;10.052;2024-01-15T22:01:35;12.35;;;9.73;;
47239;SDS011;32978;53.586;10.052;2024-01-15T22:06:31;10.52;;;9.68;;
47239;SDS011;32978;53.586;10.052;2024-01-15T22:11:31;11.57;;;10.68;;
47239;SDS011;32978;53.586;10.052;2024-01-15T22:16:29;9.93;;;9.05;;
47239;SDS011;32978;53.586;10.052;2024-01-15T22:21:25;9.77;;;8.77;;
47239;SDS011;32978;53.586;10.052;2024-01-15T22:26:22;9.75;;;8.95;;
47239;SDS011;32978;53.586;10.052;2024-01-15T22:31:18;9.20;;;7.82;;
47239;SDS011;32978;53.586;10.052;2024-01-15T22:36:15;8.30;;;7.70;;
47239;SDS011;32978;53.586;10.052;2024-01-15T22:41:11;8.32;;;7.53;;
47239;SDS011;32978;53.586;10.052;2024-01-15T22:46:08;8.40;;;7.65;;
47239;SDS011;32978;53.586;10.052;2024-01-15T22:51:06;8.20;;;7.50;;
47239;SDS011;32978;53.586;10.052;2024-01-15T22:56:03;8.00;;;7.40;;
47239;SDS011;32978;53.586;10.052;2024-01-15T23:01:00;8.07;;;7.38;;
47239;SDS011;32978;53.586;10.052;2024-01-15T23:05:56;7.72;;;6.75;;
47239;SDS011;32978;53.586;10.052;2024-01-15T23:10:53;7.75;;;7.15;;
47239;SDS011;32978;53.586;10.052;2024-01-15T23:15:49;11.15;;;6.65;;
47239;SDS011;32978;53.586;10.052;2024-01-15T23:20:46;7.47;;;6.88;;
47239;SDS011;32978;53.586;10.052;2024-01-15T23:25:42;7.70;;;7.10;;
47239;SDS011;32978;53.586;10.052;2024-01-15T23:30:39;7.93;;;7.30;;
47239;SDS011;32978;53.586;10.052;2024-01-15T23:35:35;8.52;;;7.63;;
47239;SDS011;32978;53.586;10.052;2024-01-15T23:40:32;7.68;;;6.85;;
47239;SDS011;32978;53.586;10.052;2024-01-15T23:45:29;8.20;;;7.40;;
47239;SDS011;32978;53.586;10.052;2024-01-15T23:50:25;8.68;;;7.00;;
47239;SDS011;32978;53.586;10.052;2024-01-15T23:55:22;7.63;;;6.93;;
